Sharon M I — CFP2006 — position and weather

sailwx.info

Track history (hours):
 
Tides and Currents Weather Stations Pressure Air Temp Water Temp Dewpoint Dewpoint Depression Visibility Wind Speed Wind Dir Waves Ship Positions

Sharon M I

Last reported at 2018-May-21 14:46 UTC. Time now 2018-Jun-20 20:43 UTC.
Position N 45°52' W 084°19'.
Warning: this ship's position is 30 days out of date.

Length 35 m; draft 5.8 m.

Type: Tug. MMSI: 316024256.

Date/timePositionNaut miles runAvg speedWind from/ knotsBaromVisibWave heightAir tempDewpointWater temp
2018-May-21 14:46N 45°52' W 084°19'3 9.2
2018-May-21 14:28N 45°51' W 084°23'4 9.2
2018-May-21 14:00N 45°51' W 084°29'5 9.2
2018-May-21 13:30N 45°51' W 084°35'5 9.1
2018-May-21 13:00N 45°49' W 084°42'4 8.7
2018-May-21 12:30N 45°49' W 084°48'6 9.2
2018-May-21 11:52N 45°49' W 084°56'3 9.3
2018-May-21 11:30N 45°50' W 085°01'5 9.0
2018-May-21 10:58N 45°49' W 085°08'4 8.9
2018-May-21 10:30N 45°45' W 085°09'5 9.3
2018-May-21 10:00N 45°42' W 085°13'5 9.4
2018-May-21 09:29N 45°38' W 085°17'4 9.3
2018-May-21 09:00N 45°34' W 085°21'5 9.3
2018-May-21 08:30N 45°30' W 085°25'5 9.3
2018-May-21 08:00N 45°27' W 085°29'  
2018-May-16 22:37N 45°03' W 085°54'1 7.2
2018-May-16 22:30N 45°03' W 085°53'13 7.2
2018-May-16 20:39N 45°13' W 085°39'1 7.1
2018-May-16 20:31N 45°13' W 085°38'4 7.3
2018-May-16 19:57N 45°16' W 085°33'3 7.3
2018-May-16 19:30N 45°18' W 085°30'4 7.3
2018-May-16 19:00N 45°20' W 085°25'4 7.2
2018-May-16 18:31N 45°22' W 085°21'3 6.9
2018-May-16 18:01N 45°25' W 085°19'4 7.1
2018-May-16 17:31N 45°28' W 085°18'4 7.1
2018-May-16 17:01N 45°32' W 085°18'4 7.2
2018-May-16 16:31N 45°36' W 085°17'4 7.0
2018-May-16 16:01N 45°39' W 085°16'4 7.1
2018-May-16 15:31N 45°42' W 085°13'4 7.0
2018-May-16 15:00N 45°45' W 085°10'5 6.2
2018-May-16 14:15N 45°49' W 085°08'2 6.6
2018-May-16 14:00N 45°50' W 085°06'3 6.9
2018-May-16 13:30N 45°50' W 085°01'4 7.1
2018-May-16 13:00N 45°50' W 084°56'4 7.2
2018-May-16 12:30N 45°49' W 084°51'4 7.3
2018-May-16 12:00N 45°49' W 084°46'  
2018-May-12 21:34N 45°37' W 083°34'1 9.3
2018-May-12 21:30N 45°36' W 083°33'  
Track history (hours):
 
Tides and Currents Weather Stations Pressure Air Temp Water Temp Dewpoint Dewpoint Depression Visibility Wind Speed Wind Dir Waves Ship Positions

Sharon M I

Last reported at 2018-May-21 14:46 UTC. Time now 2018-Jun-20 20:43 UTC.
Position N 45°52' W 084°19'.
Warning: this ship's position is 30 days out of date.

Length 35 m; draft 5.8 m.

Type: Tug. MMSI: 316024256.

Date/timePositionNaut miles runAvg speedWind from/ knotsBaromVisibWave heightAir tempDewpointWater temp
2018-May-21 14:46N 45°52' W 084°19'3 9.2
2018-May-21 14:28N 45°51' W 084°23'4 9.2
2018-May-21 14:00N 45°51' W 084°29'5 9.2
2018-May-21 13:30N 45°51' W 084°35'5 9.1
2018-May-21 13:00N 45°49' W 084°42'4 8.7
2018-May-21 12:30N 45°49' W 084°48'6 9.2
2018-May-21 11:52N 45°49' W 084°56'3 9.3
2018-May-21 11:30N 45°50' W 085°01'5 9.0
2018-May-21 10:58N 45°49' W 085°08'4 8.9
2018-May-21 10:30N 45°45' W 085°09'5 9.3
2018-May-21 10:00N 45°42' W 085°13'5 9.4
2018-May-21 09:29N 45°38' W 085°17'4 9.3
2018-May-21 09:00N 45°34' W 085°21'5 9.3
2018-May-21 08:30N 45°30' W 085°25'5 9.3
2018-May-21 08:00N 45°27' W 085°29'  
2018-May-16 22:37N 45°03' W 085°54'1 7.2
2018-May-16 22:30N 45°03' W 085°53'13 7.2
2018-May-16 20:39N 45°13' W 085°39'1 7.1
2018-May-16 20:31N 45°13' W 085°38'4 7.3
2018-May-16 19:57N 45°16' W 085°33'3 7.3
2018-May-16 19:30N 45°18' W 085°30'4 7.3
2018-May-16 19:00N 45°20' W 085°25'4 7.2
2018-May-16 18:31N 45°22' W 085°21'3 6.9
2018-May-16 18:01N 45°25' W 085°19'4 7.1
2018-May-16 17:31N 45°28' W 085°18'4 7.1
2018-May-16 17:01N 45°32' W 085°18'4 7.2
2018-May-16 16:31N 45°36' W 085°17'4 7.0
2018-May-16 16:01N 45°39' W 085°16'4 7.1
2018-May-16 15:31N 45°42' W 085°13'4 7.0
2018-May-16 15:00N 45°45' W 085°10'5 6.2
2018-May-16 14:15N 45°49' W 085°08'2 6.6
2018-May-16 14:00N 45°50' W 085°06'3 6.9
2018-May-16 13:30N 45°50' W 085°01'4 7.1
2018-May-16 13:00N 45°50' W 084°56'4 7.2
2018-May-16 12:30N 45°49' W 084°51'4 7.3
2018-May-16 12:00N 45°49' W 084°46'  
2018-May-12 21:34N 45°37' W 083°34'1 9.3
2018-May-12 21:30N 45°36' W 083°33'  

Dump ship's entire track history